sensor_id;sensor_type;location;lat;lon;timestamp;pressure;altitude;pressure_sealevel;temperature;humidity
36254;BME280;22291;52.250;21.228;2023-05-08T00:01:24;-97987.87;;;93.68;0.00
36254;BME280;22291;52.250;21.228;2023-05-08T00:03:52;-97967.23;;;93.68;0.00
36254;BME280;22291;52.250;21.228;2023-05-08T00:06:18;-97951.77;;;93.68;0.00
36254;BME280;22291;52.250;21.228;2023-05-08T00:08:44;-97932.94;;;93.69;0.00
36254;BME280;22291;52.250;21.228;2023-05-08T00:11:10;-97925.69;;;93.69;0.00
36254;BME280;22291;52.250;21.228;2023-05-08T00:13:36;-97912.63;;;93.69;0.00
36254;BME280;22291;52.250;21.228;2023-05-08T00:16:03;-97900.06;;;93.69;0.00
36254;BME280;22291;52.250;21.228;2023-05-08T00:18:29;-97868.37;;;93.70;0.00
36254;BME280;22291;52.250;21.228;2023-05-08T00:20:55;-97846.11;;;93.70;0.00
36254;BME280;22291;52.250;21.228;2023-05-08T00:23:21;-97824.84;;;93.71;0.00
36254;BME280;22291;52.250;21.228;2023-05-08T00:25:49;-97824.84;;;93.71;0.00
36254;BME280;22291;52.250;21.228;2023-05-08T00:28:16;-97798.33;;;93.71;0.00
36254;BME280;22291;52.250;21.228;2023-05-08T00:30:42;-97783.72;;;93.71;0.00
36254;BME280;22291;52.250;21.228;2023-05-08T00:33:08;-97774.17;;;93.72;0.00
36254;BME280;22291;52.250;21.228;2023-05-08T00:35:36;-97771.62;;;93.72;0.00
36254;BME280;22291;52.250;21.228;2023-05-08T00:38:02;-97757.14;;;93.72;0.00
36254;BME280;22291;52.250;21.228;2023-05-08T00:40:29;-97740.38;;;93.72;0.00
36254;BME280;22291;52.250;21.228;2023-05-08T00:42:55;-97729.90;;;93.72;0.00
36254;BME280;22291;52.250;21.228;2023-05-08T00:45:22;-97676.92;;;93.73;0.00
36254;BME280;22291;52.250;21.228;2023-05-08T00:47:50;-97649.26;;;93.74;0.00
36254;BME280;22291;52.250;21.228;2023-05-08T00:50:18;-97626.98;;;93.74;0.00
36254;BME280;22291;52.250;21.228;2023-05-08T00:52:46;-97587.67;;;93.75;0.00
36254;BME280;22291;52.250;21.228;2023-05-08T00:55:12;-97562.08;;;93.75;0.00
36254;BME280;22291;52.250;21.228;2023-05-08T00:57:38;-97539.05;;;93.76;0.00
36254;BME280;22291;52.250;21.228;2023-05-08T01:00:10;-97532.73;;;93.76;0.00
36254;BME280;22291;52.250;21.228;2023-05-08T01:02:38;-97531.45;;;93.76;0.00
36254;BME280;22291;52.250;21.228;2023-05-08T01:05:08;-97504.58;;;93.76;0.00
36254;BME280;22291;52.250;21.228;2023-05-08T01:07:34;-97486.40;;;93.76;0.00
36254;BME280;22291;52.250;21.228;2023-05-08T01:10:01;-97464.04;;;93.77;0.00
36254;BME280;22291;52.250;21.228;2023-05-08T01:15:32;-97451.12;;;93.77;0.00
36254;BME280;22291;52.250;21.228;2023-05-08T01:20:58;-97453.40;;;93.77;0.00
36254;BME280;22291;52.250;21.228;2023-05-08T01:23:52;-97453.40;;;93.77;0.00
36254;BME280;22291;52.250;21.228;2023-05-08T01:32:26;-97411.91;;;93.77;0.00
36254;BME280;22291;52.250;21.228;2023-05-08T01:35:17;-97393.85;;;93.78;0.00
36254;BME280;22291;52.250;21.228;2023-05-08T01:40:36;-97361.88;;;93.78;0.00
36254;BME280;22291;52.250;21.228;2023-05-08T01:43:25;-97354.33;;;93.79;0.00
36254;BME280;22291;52.250;21.228;2023-05-08T01:45:58;-97353.66;;;93.79;0.00
36254;BME280;22291;52.250;21.228;2023-05-08T01:48:33;-97354.33;;;93.79;0.00
36254;BME280;22291;52.250;21.228;2023-05-08T01:51:11;-97336.61;;;93.79;0.00
36254;BME280;22291;52.250;21.228;2023-05-08T01:53:40;-97327.25;;;93.79;0.00
36254;BME280;22291;52.250;21.228;2023-05-08T01:56:13;-97311.89;;;93.79;0.00
36254;BME280;22291;52.250;21.228;2023-05-08T01:58:44;-97308.99;;;93.79;0.00
36254;BME280;22291;52.250;21.228;2023-05-08T02:01:14;-97291.95;;;93.80;0.00
36254;BME280;22291;52.250;21.228;2023-05-08T02:03:45;-97270.33;;;93.80;0.00
36254;BME280;22291;52.250;21.228;2023-05-08T02:06:16;-97262.92;;;93.80;0.00
36254;BME280;22291;52.250;21.228;2023-05-08T02:08:47;-97243.91;;;93.80;0.00
36254;BME280;22291;52.250;21.228;2023-05-08T02:11:17;-97236.50;;;93.81;0.00
36254;BME280;22291;52.250;21.228;2023-05-08T02:13:47;-97228.42;;;93.81;0.00
36254;BME280;22291;52.250;21.228;2023-05-08T02:16:15;-97221.62;;;93.81;0.00
36254;BME280;22291;52.250;21.228;2023-05-08T02:18:50;-97207.80;;;93.81;0.00
36254;BME280;22291;52.250;21.228;2023-05-08T02:21:17;-97197.83;;;93.81;0.00
36254;BME280;22291;52.250;21.228;2023-05-08T02:23:45;-97182.20;;;93.81;0.00
36254;BME280;22291;52.250;21.228;2023-05-08T02:26:15;-97173.77;;;93.82;0.00
36254;BME280;22291;52.250;21.228;2023-05-08T02:28:43;-97147.62;;;93.82;0.00
36254;BME280;22291;52.250;21.228;2023-05-08T02:31:13;-97129.70;;;93.83;0.00
36254;BME280;22291;52.250;21.228;2023-05-08T02:33:41;-97119.73;;;93.83;0.00
36254;BME280;22291;52.250;21.228;2023-05-08T02:36:13;-97100.25;;;93.83;0.00
36254;BME280;22291;52.250;21.228;2023-05-08T02:38:46;-97083.48;;;93.83;0.00
36254;BME280;22291;52.250;21.228;2023-05-08T02:41:18;-97065.67;;;93.84;0.00
36254;BME280;22291;52.250;21.228;2023-05-08T02:43:49;-97049.91;;;93.84;0.00
36254;BME280;22291;52.250;21.228;2023-05-08T02:49:28;-97012.02;;;93.84;0.00
36254;BME280;22291;52.250;21.228;2023-05-08T02:58:06;-96961.66;;;93.85;0.00
36254;BME280;22291;52.250;21.228;2023-05-08T03:01:02;-96954.98;;;93.86;0.00
36254;BME280;22291;52.250;21.228;2023-05-08T03:06:19;-96917.56;;;93.86;0.00
36254;BME280;22291;52.250;21.228;2023-05-08T03:08:46;-96915.13;;;93.86;0.00
36254;BME280;22291;52.250;21.228;2023-05-08T03:11:17;-96909.88;;;93.86;0.00
36254;BME280;22291;52.250;21.228;2023-05-08T03:13:48;-96912.66;;;93.86;0.00
36254;BME280;22291;52.250;21.228;2023-05-08T03:16:22;-96923.77;;;93.86;0.00
36254;BME280;22291;52.250;21.228;2023-05-08T03:18:55;-96923.91;;;93.86;0.00
36254;BME280;22291;52.250;21.228;2023-05-08T03:21:26;-96921.22;;;93.86;0.00
36254;BME280;22291;52.250;21.228;2023-05-08T03:23:58;-96926.07;;;93.86;0.00
36254;BME280;22291;52.250;21.228;2023-05-08T03:26:25;-96931.19;;;93.86;0.00
36254;BME280;22291;52.250;21.228;2023-05-08T03:28:54;-96937.32;;;93.86;0.00
36254;BME280;22291;52.250;21.228;2023-05-08T03:31:25;-96938.34;;;93.86;0.00
36254;BME280;22291;52.250;21.228;2023-05-08T03:33:53;-96955.27;;;93.85;0.00
36254;BME280;22291;52.250;21.228;2023-05-08T03:36:21;-96973.41;;;93.85;0.00
36254;BME280;22291;52.250;21.228;2023-05-08T03:38:51;-96999.08;;;93.84;0.00
36254;BME280;22291;52.250;21.228;2023-05-08T03:41:19;-97038.78;;;93.84;0.00
36254;BME280;22291;52.250;21.228;2023-05-08T03:43:48;-97061.03;;;93.83;0.00
36254;BME280;22291;52.250;21.228;2023-05-08T03:46:16;-97092.17;;;93.83;0.00
36254;BME280;22291;52.250;21.228;2023-05-08T03:48:44;-97119.45;;;93.82;0.00
36254;BME280;22291;52.250;21.228;2023-05-08T03:51:12;-97158.87;;;93.81;0.00
36254;BME280;22291;52.250;21.228;2023-05-08T03:53:42;-97186.43;;;93.81;0.00
36254;BME280;22291;52.250;21.228;2023-05-08T03:56:08;-97220.13;;;93.80;0.00
36254;BME280;22291;52.250;21.228;2023-05-08T03:58:44;-97262.36;;;93.80;0.00
36254;BME280;22291;52.250;21.228;2023-05-08T04:01:28;-97299.47;;;93.79;0.00
36254;BME280;22291;52.250;21.228;2023-05-08T04:04:19;-97337.11;;;93.78;0.00
36254;BME280;22291;52.250;21.228;2023-05-08T04:10:05;-97439.28;;;93.76;0.00
36254;BME280;22291;52.250;21.228;2023-05-08T04:12:38;-97494.73;;;93.75;0.00
36254;BME280;22291;52.250;21.228;2023-05-08T04:15:13;-97536.06;;;93.74;0.00
36254;BME280;22291;52.250;21.228;2023-05-08T04:17:44;-97592.41;;;93.73;0.00
36254;BME280;22291;52.250;21.228;2023-05-08T04:20:16;-97636.41;;;93.72;0.00
36254;BME280;22291;52.250;21.228;2023-05-08T04:22:46;-97683.50;;;93.71;0.00
36254;BME280;22291;52.250;21.228;2023-05-08T04:25:17;-97742.63;;;93.70;0.00
36254;BME280;22291;52.250;21.228;2023-05-08T04:27:48;-97804.64;;;93.69;0.00
36254;BME280;22291;52.250;21.228;2023-05-08T04:30:17;-97879.27;;;93.67;0.00
36254;BME280;22291;52.250;21.228;2023-05-08T04:32:45;-97946.56;;;93.66;0.00
36254;BME280;22291;52.250;21.228;2023-05-08T04:35:13;-98031.86;;;93.64;0.00
36254;BME280;22291;52.250;21.228;2023-05-08T04:37:41;-98106.05;;;93.63;0.00
36254;BME280;22291;52.250;21.228;2023-05-08T04:40:11;-98183.92;;;93.62;0.00
36254;BME280;22291;52.250;21.228;2023-05-08T04:42:40;-98274.47;;;93.60;0.00
36254;BME280;22291;52.250;21.228;2023-05-08T04:45:12;-98345.38;;;93.59;0.00
36254;BME280;22291;52.250;21.228;2023-05-08T04:47:39;-98443.45;;;93.57;0.00
36254;BME280;22291;52.250;21.228;2023-05-08T04:50:07;-98517.09;;;93.55;0.00
36254;BME280;22291;52.250;21.228;2023-05-08T04:52:35;-98600.38;;;93.53;0.00
36254;BME280;22291;52.250;21.228;2023-05-08T04:55:04;-98691.77;;;93.52;0.00
36254;BME280;22291;52.250;21.228;2023-05-08T04:57:33;-98798.55;;;93.50;0.00
36254;BME280;22291;52.250;21.228;2023-05-08T04:59:59;-98903.55;;;93.48;0.00
36254;BME280;22291;52.250;21.228;2023-05-08T05:02:25;-99007.89;;;93.46;0.00
36254;BME280;22291;52.250;21.228;2023-05-08T05:04:51;-99100.33;;;93.44;0.00
36254;BME280;22291;52.250;21.228;2023-05-08T05:07:18;128168.78;;;42.22;0.00
36254;BME280;22291;52.250;21.228;2023-05-08T05:09:44;128130.43;;;42.20;0.00
36254;BME280;22291;52.250;21.228;2023-05-08T05:12:10;128079.68;;;42.18;0.00
36254;BME280;22291;52.250;21.228;2023-05-08T05:14:36;128032.65;;;42.16;0.00
36254;BME280;22291;52.250;21.228;2023-05-08T05:17:02;127982.23;;;42.13;0.00
36254;BME280;22291;52.250;21.228;2023-05-08T05:19:28;127935.63;;;42.11;0.00
36254;BME280;22291;52.250;21.228;2023-05-08T05:21:54;127876.66;;;42.09;0.00
36254;BME280;22291;52.250;21.228;2023-05-08T05:24:20;127821.73;;;42.06;0.00
36254;BME280;22291;52.250;21.228;2023-05-08T05:26:47;127764.89;;;42.04;0.00
36254;BME280;22291;52.250;21.228;2023-05-08T05:29:13;127706.39;;;42.01;0.00
36254;BME280;22291;52.250;21.228;2023-05-08T05:31:39;127641.62;;;41.98;0.00
36254;BME280;22291;52.250;21.228;2023-05-08T05:34:08;127566.34;;;41.94;0.00
36254;BME280;22291;52.250;21.228;2023-05-08T05:36:34;127487.95;;;41.91;0.00
36254;BME280;22291;52.250;21.228;2023-05-08T05:39:02;127405.41;;;41.87;0.00
36254;BME280;22291;52.250;21.228;2023-05-08T05:41:28;127324.95;;;41.83;0.00
36254;BME280;22291;52.250;21.228;2023-05-08T05:43:54;127253.35;;;41.80;0.00
36254;BME280;22291;52.250;21.228;2023-05-08T05:46:21;127173.23;;;41.76;0.00
36254;BME280;22291;52.250;21.228;2023-05-08T05:48:49;127095.47;;;41.72;0.00
36254;BME280;22291;52.250;21.228;2023-05-08T05:51:15;127021.23;;;41.69;0.00
36254;BME280;22291;52.250;21.228;2023-05-08T05:53:41;126944.14;;;41.65;0.00
36254;BME280;22291;52.250;21.228;2023-05-08T05:56:09;126872.30;;;41.62;0.00
36254;BME280;22291;52.250;21.228;2023-05-08T05:58:37;126808.47;;;41.58;0.00
36254;BME280;22291;52.250;21.228;2023-05-08T06:01:05;126753.73;;;41.56;0.00
36254;BME280;22291;52.250;21.228;2023-05-08T06:03:31;126688.89;;;41.53;0.00
36254;BME280;22291;52.250;21.228;2023-05-08T06:05:57;126648.45;;;41.51;0.00
36254;BME280;22291;52.250;21.228;2023-05-08T06:08:23;126599.03;;;41.49;0.00
36254;BME280;22291;52.250;21.228;2023-05-08T06:10:49;126552.16;;;41.47;0.00
36254;BME280;22291;52.250;21.228;2023-05-08T06:13:15;126507.03;;;41.45;0.00
36254;BME280;22291;52.250;21.228;2023-05-08T06:15:43;126459.93;;;41.42;0.00
36254;BME280;22291;52.250;21.228;2023-05-08T06:18:09;126417.84;;;41.40;0.00
36254;BME280;22291;52.250;21.228;2023-05-08T06:20:38;126369.42;;;41.38;0.00
36254;BME280;22291;52.250;21.228;2023-05-08T06:23:05;126326.18;;;41.36;0.00
36254;BME280;22291;52.250;21.228;2023-05-08T06:25:32;126280.13;;;41.33;0.00
36254;BME280;22291;52.250;21.228;2023-05-08T06:27:58;126217.19;;;41.30;0.00
36254;BME280;22291;52.250;21.228;2023-05-08T06:30:26;126153.42;;;41.27;0.00
36254;BME280;22291;52.250;21.228;2023-05-08T06:32:52;126093.92;;;41.24;0.00
36254;BME280;22291;52.250;21.228;2023-05-08T06:35:19;126030.13;;;41.21;0.00
36254;BME280;22291;52.250;21.228;2023-05-08T06:37:46;125955.98;;;41.18;0.00
36254;BME280;22291;52.250;21.228;2023-05-08T06:40:13;125889.72;;;41.14;0.00
36254;BME280;22291;52.250;21.228;2023-05-08T06:42:41;125803.81;;;41.11;0.00
36254;BME280;22291;52.250;21.228;2023-05-08T06:45:08;125720.81;;;41.06;0.00
36254;BME280;22291;52.250;21.228;2023-05-08T06:47:37;125640.23;;;41.03;0.00
36254;BME280;22291;52.250;21.228;2023-05-08T06:50:05;125568.30;;;40.99;0.00
36254;BME280;22291;52.250;21.228;2023-05-08T06:52:33;125490.92;;;40.95;0.00
36254;BME280;22291;52.250;21.228;2023-05-08T06:54:59;125425.39;;;40.92;0.00
36254;BME280;22291;52.250;21.228;2023-05-08T06:57:26;125350.72;;;40.88;0.00
36254;BME280;22291;52.250;21.228;2023-05-08T06:59:54;125258.27;;;40.84;0.00
36254;BME280;22291;52.250;21.228;2023-05-08T07:02:20;125175.08;;;40.80;0.00
36254;BME280;22291;52.250;21.228;2023-05-08T07:04:46;125107.45;;;40.76;0.00
36254;BME280;22291;52.250;21.228;2023-05-08T07:07:14;125042.11;;;40.73;0.00
36254;BME280;22291;52.250;21.228;2023-05-08T07:09:40;124964.38;;;40.69;0.00
36254;BME280;22291;52.250;21.228;2023-05-08T07:12:06;124892.58;;;40.65;0.00
36254;BME280;22291;52.250;21.228;2023-05-08T07:14:33;124834.88;;;40.62;0.00
36254;BME280;22291;52.250;21.228;2023-05-08T07:17:02;124768.77;;;40.59;0.00
36254;BME280;22291;52.250;21.228;2023-05-08T07:19:30;124691.98;;;40.55;0.00
36254;BME280;22291;52.250;21.228;2023-05-08T07:21:57;124603.93;;;40.51;0.00
36254;BME280;22291;52.250;21.228;2023-05-08T07:24:25;124512.38;;;40.46;0.00
36254;BME280;22291;52.250;21.228;2023-05-08T07:26:51;124435.73;;;40.42;0.00
36254;BME280;22291;52.250;21.228;2023-05-08T07:29:17;124369.18;;;40.39;0.00
36254;BME280;22291;52.250;21.228;2023-05-08T07:31:45;124287.58;;;40.35;0.00
36254;BME280;22291;52.250;21.228;2023-05-08T07:34:13;124191.54;;;40.30;0.00
36254;BME280;22291;52.250;21.228;2023-05-08T07:36:40;124101.72;;;40.25;0.00
36254;BME280;22291;52.250;21.228;2023-05-08T07:39:06;124052.52;;;40.22;0.00
36254;BME280;22291;52.250;21.228;2023-05-08T07:41:32;124000.54;;;40.20;0.00
36254;BME280;22291;52.250;21.228;2023-05-08T07:43:59;123937.20;;;40.17;0.00
36254;BME280;22291;52.250;21.228;2023-05-08T07:46:25;123855.78;;;40.12;0.00
36254;BME280;22291;52.250;21.228;2023-05-08T07:48:51;123740.41;;;40.07;0.00
36254;BME280;22291;52.250;21.228;2023-05-08T07:51:17;123648.13;;;40.02;0.00
36254;BME280;22291;52.250;21.228;2023-05-08T07:53:43;123569.21;;;39.98;0.00
36254;BME280;22291;52.250;21.228;2023-05-08T07:56:11;123472.77;;;39.93;0.00
36254;BME280;22291;52.250;21.228;2023-05-08T07:58:37;123345.83;;;39.86;0.00
36254;BME280;22291;52.250;21.228;2023-05-08T08:01:03;123225.55;;;39.79;0.00
36254;BME280;22291;52.250;21.228;2023-05-08T08:03:29;123145.30;;;39.75;0.00
36254;BME280;22291;52.250;21.228;2023-05-08T08:05:56;123084.25;;;39.72;0.00
36254;BME280;22291;52.250;21.228;2023-05-08T08:08:22;123089.30;;;39.72;0.00
36254;BME280;22291;52.250;21.228;2023-05-08T08:10:49;123043.64;;;39.70;0.00
36254;BME280;22291;52.250;21.228;2023-05-08T08:13:15;122954.44;;;39.65;0.00
36254;BME280;22291;52.250;21.228;2023-05-08T08:15:42;122851.16;;;39.59;0.00
36254;BME280;22291;52.250;21.228;2023-05-08T08:18:08;122736.46;;;39.53;0.00
36254;BME280;22291;52.250;21.228;2023-05-08T08:20:35;122641.37;;;39.48;0.00
36254;BME280;22291;52.250;21.228;2023-05-08T08:23:02;122651.37;;;39.49;0.00
36254;BME280;22291;52.250;21.228;2023-05-08T08:25:28;122564.29;;;39.44;0.00
36254;BME280;22291;52.250;21.228;2023-05-08T08:27:54;122597.62;;;39.46;0.00
36254;BME280;22291;52.250;21.228;2023-05-08T08:30:20;122719.76;;;39.53;0.00
36254;BME280;22291;52.250;21.228;2023-05-08T08:32:47;122890.20;;;39.62;0.00
36254;BME280;22291;52.250;21.228;2023-05-08T08:35:13;123049.50;;;39.70;0.00
36254;BME280;22291;52.250;21.228;2023-05-08T08:37:40;123178.78;;;39.77;0.00
36254;BME280;22291;52.250;21.228;2023-05-08T08:40:07;123293.37;;;39.83;0.00
36254;BME280;22291;52.250;21.228;2023-05-08T08:42:34;123411.16;;;39.90;0.00
36254;BME280;22291;52.250;21.228;2023-05-08T08:45:00;123549.44;;;39.97;0.00
36254;BME280;22291;52.250;21.228;2023-05-08T08:47:28;123632.92;;;40.02;0.00
36254;BME280;22291;52.250;21.228;2023-05-08T08:49:57;123665.42;;;40.03;0.00
36254;BME280;22291;52.250;21.228;2023-05-08T08:55:01;123735.67;;;40.07;0.00
36254;BME280;22291;52.250;21.228;2023-05-08T08:57:33;123574.06;;;39.99;0.00
36254;BME280;22291;52.250;21.228;2023-05-08T09:00:03;123325.40;;;39.85;0.00
36254;BME280;22291;52.250;21.228;2023-05-08T09:02:33;123094.03;;;39.73;0.00
36254;BME280;22291;52.250;21.228;2023-05-08T09:05:01;123112.76;;;39.75;0.00
36254;BME280;22291;52.250;21.228;2023-05-08T09:07:29;123238.17;;;39.81;0.00
36254;BME280;22291;52.250;21.228;2023-05-08T09:09:56;123304.72;;;39.84;0.00
36254;BME280;22291;52.250;21.228;2023-05-08T09:12:22;123393.05;;;39.89;0.00
36254;BME280;22291;52.250;21.228;2023-05-08T09:14:49;123450.13;;;39.92;0.00
36254;BME280;22291;52.250;21.228;2023-05-08T09:17:16;123527.45;;;39.96;0.00
36254;BME280;22291;52.250;21.228;2023-05-08T09:19:43;123578.23;;;39.99;0.00
36254;BME280;22291;52.250;21.228;2023-05-08T09:22:10;123583.64;;;39.99;0.00
36254;BME280;22291;52.250;21.228;2023-05-08T09:24:56;123494.60;;;39.95;0.00
36254;BME280;22291;52.250;21.228;2023-05-08T09:27:25;123568.21;;;39.99;0.00
36254;BME280;22291;52.250;21.228;2023-05-08T09:30:05;123651.28;;;40.03;0.00
36254;BME280;22291;52.250;21.228;2023-05-08T09:32:35;123528.97;;;39.96;0.00
36254;BME280;22291;52.250;21.228;2023-05-08T09:35:04;123359.79;;;39.88;0.00
36254;BME280;22291;52.250;21.228;2023-05-08T09:37:31;123310.59;;;39.85;0.00
36254;BME280;22291;52.250;21.228;2023-05-08T09:40:19;123224.05;;;39.81;0.00
36254;BME280;22291;52.250;21.228;2023-05-08T09:42:48;123137.48;;;39.77;0.00
36254;BME280;22291;52.250;21.228;2023-05-08T09:45:31;122971.80;;;39.67;0.00
36254;BME280;22291;52.250;21.228;2023-05-08T09:47:56;122945.73;;;39.66;0.00
36254;BME280;22291;52.250;21.228;2023-05-08T09:50:23;122783.21;;;39.57;0.00
36254;BME280;22291;52.250;21.228;2023-05-08T09:52:50;122556.61;;;39.45;0.00
36254;BME280;22291;52.250;21.228;2023-05-08T09:55:17;122442.39;;;39.39;0.00
36254;BME280;22291;52.250;21.228;2023-05-08T10:00:25;122050.44;;;39.18;0.00
36254;BME280;22291;52.250;21.228;2023-05-08T10:05:28;121730.39;;;39.01;0.00
36254;BME280;22291;52.250;21.228;2023-05-08T10:07:57;121815.78;;;39.06;0.00
36254;BME280;22291;52.250;21.228;2023-05-08T10:10:25;121757.95;;;39.02;0.00
36254;BME280;22291;52.250;21.228;2023-05-08T10:12:54;121610.94;;;38.94;0.00
36254;BME280;22291;52.250;21.228;2023-05-08T10:15:22;121443.44;;;38.85;0.00
36254;BME280;22291;52.250;21.228;2023-05-08T10:18:03;121307.89;;;38.78;0.00
36254;BME280;22291;52.250;21.228;2023-05-08T10:20:30;121311.09;;;38.78;0.00
36254;BME280;22291;52.250;21.228;2023-05-08T10:22:58;121437.88;;;38.85;0.00
36254;BME280;22291;52.250;21.228;2023-05-08T10:25:29;121399.23;;;38.83;0.00
36254;BME280;22291;52.250;21.228;2023-05-08T10:28:06;121266.83;;;38.75;0.00
36254;BME280;22291;52.250;21.228;2023-05-08T10:30:40;121323.04;;;38.79;0.00
36254;BME280;22291;52.250;21.228;2023-05-08T10:33:09;121598.16;;;38.94;0.00
36254;BME280;22291;52.250;21.228;2023-05-08T10:35:36;121722.33;;;39.01;0.00
36254;BME280;22291;52.250;21.228;2023-05-08T10:38:03;121580.73;;;38.93;0.00
36254;BME280;22291;52.250;21.228;2023-05-08T10:40:34;121490.26;;;38.88;0.00
36254;BME280;22291;52.250;21.228;2023-05-08T10:43:04;121523.36;;;38.90;0.00
36254;BME280;22291;52.250;21.228;2023-05-08T10:45:32;121692.23;;;38.99;0.00
36254;BME280;22291;52.250;21.228;2023-05-08T10:48:10;121722.73;;;39.01;0.00
36254;BME280;22291;52.250;21.228;2023-05-08T10:53:58;121507.67;;;38.89;0.00
36254;BME280;22291;52.250;21.228;2023-05-08T10:56:28;121337.13;;;38.80;0.00
36254;BME280;22291;52.250;21.228;2023-05-08T10:58:56;121144.79;;;38.69;0.00
36254;BME280;22291;52.250;21.228;2023-05-08T11:01:24;121022.22;;;38.62;0.00
36254;BME280;22291;52.250;21.228;2023-05-08T11:03:51;120949.80;;;38.58;0.00
36254;BME280;22291;52.250;21.228;2023-05-08T11:06:43;120788.47;;;38.49;0.00
36254;BME280;22291;52.250;21.228;2023-05-08T11:09:27;120561.44;;;38.36;0.00
36254;BME280;22291;52.250;21.228;2023-05-08T11:12:35;120506.84;;;38.33;0.00
36254;BME280;22291;52.250;21.228;2023-05-08T11:14:24;120747.58;;;38.47;0.00
36254;BME280;22291;52.250;21.228;2023-05-08T11:19:27;121208.31;;;38.73;0.00
36254;BME280;22291;52.250;21.228;2023-05-08T11:22:13;121487.59;;;38.88;0.00
36254;BME280;22291;52.250;21.228;2023-05-08T11:24:54;121600.31;;;38.95;0.00
36254;BME280;22291;52.250;21.228;2023-05-08T11:27:36;121433.50;;;38.86;0.00
36254;BME280;22291;52.250;21.228;2023-05-08T11:30:20;121212.97;;;38.73;0.00
36254;BME280;22291;52.250;21.228;2023-05-08T11:35:55;121003.08;;;38.62;0.00
36254;BME280;22291;52.250;21.228;2023-05-08T11:38:29;120887.52;;;38.55;0.00
36254;BME280;22291;52.250;21.228;2023-05-08T11:48:38;101699.56;;;24.48;22.10
36254;BME280;22291;52.250;21.228;2023-05-08T11:51:05;101682.93;;;23.78;23.31
36254;BME280;22291;52.250;21.228;2023-05-08T11:53:32;101695.23;;;23.81;23.19
36254;BME280;22291;52.250;21.228;2023-05-08T11:55:59;101690.50;;;23.72;24.00
36254;BME280;22291;52.250;21.228;2023-05-08T11:58:26;101686.88;;;23.77;23.64
36254;BME280;22291;52.250;21.228;2023-05-08T12:00:52;101696.11;;;23.75;23.18
36254;BME280;22291;52.250;21.228;2023-05-08T12:03:21;101690.07;;;23.69;23.54
36254;BME280;22291;52.250;21.228;2023-05-08T12:05:50;101682.42;;;23.92;23.69
36254;BME280;22291;52.250;21.228;2023-05-08T12:08:18;101682.58;;;23.99;23.62
36254;BME280;22291;52.250;21.228;2023-05-08T12:13:22;101680.67;;;24.27;23.71
36254;BME280;22291;52.250;21.228;2023-05-08T12:15:54;101684.30;;;24.21;22.61
36254;BME280;22291;52.250;21.228;2023-05-08T12:18:23;101680.03;;;23.81;22.75
36254;BME280;22291;52.250;21.228;2023-05-08T12:20:59;101680.41;;;23.69;23.04
36254;BME280;22291;52.250;21.228;2023-05-08T12:23:27;101677.08;;;23.50;22.53
36254;BME280;22291;52.250;21.228;2023-05-08T12:25:59;101677.00;;;23.27;23.23
36254;BME280;22291;52.250;21.228;2023-05-08T12:28:26;101679.65;;;23.04;23.02
36254;BME280;22291;52.250;21.228;2023-05-08T12:30:54;101675.38;;;23.07;23.74
36254;BME280;22291;52.250;21.228;2023-05-08T12:33:21;101678.20;;;23.01;23.39
36254;BME280;22291;52.250;21.228;2023-05-08T12:35:49;101675.56;;;23.14;23.48
36254;BME280;22291;52.250;21.228;2023-05-08T12:38:15;101673.83;;;23.45;23.77
36254;BME280;22291;52.250;21.228;2023-05-08T12:40:46;101671.33;;;23.59;22.97
36254;BME280;22291;52.250;21.228;2023-05-08T12:43:14;101668.14;;;23.57;23.24
36254;BME280;22291;52.250;21.228;2023-05-08T12:45:41;101666.22;;;23.81;22.81
36254;BME280;22291;52.250;21.228;2023-05-08T12:48:12;101655.34;;;23.68;22.69
36254;BME280;22291;52.250;21.228;2023-05-08T12:50:41;101663.69;;;23.82;23.40
36254;BME280;22291;52.250;21.228;2023-05-08T12:53:09;101658.47;;;24.10;23.35
36254;BME280;22291;52.250;21.228;2023-05-08T12:55:51;101662.36;;;24.18;22.48
36254;BME280;22291;52.250;21.228;2023-05-08T12:58:19;101654.58;;;24.14;22.88
36254;BME280;22291;52.250;21.228;2023-05-08T13:00:52;101654.55;;;24.24;22.83
36254;BME280;22291;52.250;21.228;2023-05-08T13:03:25;101651.81;;;24.14;22.67
36254;BME280;22291;52.250;21.228;2023-05-08T13:05:56;101652.97;;;24.23;22.36
36254;BME280;22291;52.250;21.228;2023-05-08T13:08:33;101652.63;;;24.15;22.80
36254;BME280;22291;52.250;21.228;2023-05-08T13:11:03;101641.38;;;24.04;22.66
36254;BME280;22291;52.250;21.228;2023-05-08T13:13:33;101642.45;;;23.96;22.67
36254;BME280;22291;52.250;21.228;2023-05-08T13:16:03;101636.61;;;24.01;22.97
36254;BME280;22291;52.250;21.228;2023-05-08T13:18:32;101638.76;;;24.11;22.63
36254;BME280;22291;52.250;21.228;2023-05-08T13:21:00;101632.22;;;24.10;22.42
36254;BME280;22291;52.250;21.228;2023-05-08T13:23:27;101636.08;;;24.05;22.33
36254;BME280;22291;52.250;21.228;2023-05-08T13:25:54;101631.62;;;24.10;22.32
36254;BME280;22291;52.250;21.228;2023-05-08T13:28:21;101620.53;;;24.20;22.66
36254;BME280;22291;52.250;21.228;2023-05-08T13:30:47;101619.89;;;24.17;21.89
36254;BME280;22291;52.250;21.228;2023-05-08T13:33:14;101609.06;;;23.95;21.99
36254;BME280;22291;52.250;21.228;2023-05-08T13:35:40;101617.39;;;23.75;22.16
36254;BME280;22291;52.250;21.228;2023-05-08T13:38:06;101618.56;;;23.64;22.39
36254;BME280;22291;52.250;21.228;2023-05-08T13:40:32;101614.13;;;23.60;22.33
36254;BME280;22291;52.250;21.228;2023-05-08T13:42:59;101618.38;;;23.54;22.50
36254;BME280;22291;52.250;21.228;2023-05-08T13:45:25;101615.19;;;23.52;22.21
36254;BME280;22291;52.250;21.228;2023-05-08T13:47:53;101604.88;;;23.29;22.34
36254;BME280;22291;52.250;21.228;2023-05-08T13:50:20;101599.14;;;23.08;22.25
36254;BME280;22291;52.250;21.228;2023-05-08T13:52:47;101602.32;;;23.01;22.28
36254;BME280;22291;52.250;21.228;2023-05-08T13:55:14;101596.58;;;22.80;22.51